sensor_id;sensor_type;location;lat;lon;timestamp;P1;durP1;ratioP1;P2;durP2;ratioP2
63959;SDS011;50136;51.374;0.096;2022-08-18T00:07:58;11.13;;;7.50;;
63959;SDS011;50136;51.374;0.096;2022-08-18T00:18:00;13.80;;;6.82;;
63959;SDS011;50136;51.374;0.096;2022-08-18T00:28:03;15.43;;;8.10;;
63959;SDS011;50136;51.374;0.096;2022-08-18T00:38:06;19.17;;;9.13;;
63959;SDS011;50136;51.374;0.096;2022-08-18T00:48:25;17.77;;;8.52;;
63959;SDS011;50136;51.374;0.096;2022-08-18T00:58:28;14.73;;;8.48;;
63959;SDS011;50136;51.374;0.096;2022-08-18T01:08:37;13.57;;;8.40;;
63959;SDS011;50136;51.374;0.096;2022-08-18T01:18:41;15.63;;;8.27;;
63959;SDS011;50136;51.374;0.096;2022-08-18T01:28:45;19.70;;;7.93;;
63959;SDS011;50136;51.374;0.096;2022-08-18T01:38:48;15.57;;;9.00;;
63959;SDS011;50136;51.374;0.096;2022-08-18T01:48:53;13.73;;;7.53;;
63959;SDS011;50136;51.374;0.096;2022-08-18T01:58:56;12.27;;;7.47;;
63959;SDS011;50136;51.374;0.096;2022-08-18T02:08:59;15.73;;;7.00;;
63959;SDS011;50136;51.374;0.096;2022-08-18T02:19:01;14.23;;;7.20;;
63959;SDS011;50136;51.374;0.096;2022-08-18T02:29:05;13.50;;;6.75;;
63959;SDS011;50136;51.374;0.096;2022-08-18T02:39:07;14.00;;;7.00;;
63959;SDS011;50136;51.374;0.096;2022-08-18T02:49:10;18.20;;;7.80;;
63959;SDS011;50136;51.374;0.096;2022-08-18T02:59:13;12.55;;;8.05;;
63959;SDS011;50136;51.374;0.096;2022-08-18T03:09:18;11.45;;;6.93;;
63959;SDS011;50136;51.374;0.096;2022-08-18T03:19:20;9.93;;;7.20;;
63959;SDS011;50136;51.374;0.096;2022-08-18T03:29:25;19.80;;;8.68;;
63959;SDS011;50136;51.374;0.096;2022-08-18T03:39:32;15.18;;;8.02;;
63959;SDS011;50136;51.374;0.096;2022-08-18T03:49:36;15.05;;;8.52;;
63959;SDS011;50136;51.374;0.096;2022-08-18T03:59:39;21.35;;;10.65;;
63959;SDS011;50136;51.374;0.096;2022-08-18T04:09:42;18.85;;;8.27;;
63959;SDS011;50136;51.374;0.096;2022-08-18T04:19:45;23.60;;;9.15;;
63959;SDS011;50136;51.374;0.096;2022-08-18T04:29:48;20.30;;;9.15;;
63959;SDS011;50136;51.374;0.096;2022-08-18T04:39:50;16.02;;;8.55;;
63959;SDS011;50136;51.374;0.096;2022-08-18T04:49:54;26.70;;;10.65;;
63959;SDS011;50136;51.374;0.096;2022-08-18T04:59:56;21.23;;;9.75;;
63959;SDS011;50136;51.374;0.096;2022-08-18T05:09:59;16.98;;;10.55;;
63959;SDS011;50136;51.374;0.096;2022-08-18T05:20:02;19.05;;;10.93;;
63959;SDS011;50136;51.374;0.096;2022-08-18T05:30:08;22.08;;;11.35;;
63959;SDS011;50136;51.374;0.096;2022-08-18T05:40:12;18.40;;;12.68;;
63959;SDS011;50136;51.374;0.096;2022-08-18T05:50:17;18.40;;;13.88;;
63959;SDS011;50136;51.374;0.096;2022-08-18T06:00:20;30.98;;;17.58;;
63959;SDS011;50136;51.374;0.096;2022-08-18T06:10:24;21.48;;;13.25;;
63959;SDS011;50136;51.374;0.096;2022-08-18T06:20:27;21.17;;;14.90;;
63959;SDS011;50136;51.374;0.096;2022-08-18T06:30:41;19.50;;;15.07;;
63959;SDS011;50136;51.374;0.096;2022-08-18T06:40:55;31.40;;;15.77;;
63959;SDS011;50136;51.374;0.096;2022-08-18T06:51:05;26.92;;;14.23;;
63959;SDS011;50136;51.374;0.096;2022-08-18T07:01:08;24.05;;;13.98;;
63959;SDS011;50136;51.374;0.096;2022-08-18T07:11:19;22.80;;;11.68;;
63959;SDS011;50136;51.374;0.096;2022-08-18T07:21:25;75.73;;;17.70;;
63959;SDS011;50136;51.374;0.096;2022-08-18T07:31:34;16.85;;;13.07;;
63959;SDS011;50136;51.374;0.096;2022-08-18T07:41:43;16.05;;;10.55;;
63959;SDS011;50136;51.374;0.096;2022-08-18T07:51:53;24.38;;;12.50;;
63959;SDS011;50136;51.374;0.096;2022-08-18T08:02:03;17.52;;;9.35;;
63959;SDS011;50136;51.374;0.096;2022-08-18T08:12:23;17.00;;;8.57;;
63959;SDS011;50136;51.374;0.096;2022-08-18T08:22:32;11.48;;;8.35;;
63959;SDS011;50136;51.374;0.096;2022-08-18T08:32:42;15.13;;;8.48;;
63959;SDS011;50136;51.374;0.096;2022-08-18T08:42:56;26.02;;;11.02;;
63959;SDS011;50136;51.374;0.096;2022-08-18T08:53:05;16.90;;;8.20;;
63959;SDS011;50136;51.374;0.096;2022-08-18T09:03:19;12.77;;;7.18;;
63959;SDS011;50136;51.374;0.096;2022-08-18T09:13:40;15.40;;;8.30;;
63959;SDS011;50136;51.374;0.096;2022-08-18T09:24:02;41.88;;;10.05;;
63959;SDS011;50136;51.374;0.096;2022-08-18T09:44:59;9.60;;;6.07;;
63959;SDS011;50136;51.374;0.096;2022-08-18T10:05:40;11.63;;;5.90;;
63959;SDS011;50136;51.374;0.096;2022-08-18T10:16:04;5.53;;;4.85;;
63959;SDS011;50136;51.374;0.096;2022-08-18T10:37:12;10.00;;;6.20;;
63959;SDS011;50136;51.374;0.096;2022-08-18T10:47:21;13.13;;;7.72;;
63959;SDS011;50136;51.374;0.096;2022-08-18T10:57:49;13.45;;;7.53;;
63959;SDS011;50136;51.374;0.096;2022-08-18T11:08:03;15.63;;;6.88;;
63959;SDS011;50136;51.374;0.096;2022-08-18T11:18:31;10.88;;;6.65;;
63959;SDS011;50136;51.374;0.096;2022-08-18T11:28:43;8.38;;;6.68;;
63959;SDS011;50136;51.374;0.096;2022-08-18T11:38:53;19.40;;;8.82;;
63959;SDS011;50136;51.374;0.096;2022-08-18T11:48:57;9.23;;;8.30;;
63959;SDS011;50136;51.374;0.096;2022-08-18T11:59:03;12.20;;;10.48;;
63959;SDS011;50136;51.374;0.096;2022-08-18T12:09:14;109.80;;;17.93;;
63959;SDS011;50136;51.374;0.096;2022-08-18T12:19:40;11.52;;;10.32;;
63959;SDS011;50136;51.374;0.096;2022-08-18T12:29:42;14.07;;;10.90;;
63959;SDS011;50136;51.374;0.096;2022-08-18T12:39:46;49.85;;;14.10;;
63959;SDS011;50136;51.374;0.096;2022-08-18T12:49:49;11.23;;;9.00;;
63959;SDS011;50136;51.374;0.096;2022-08-18T12:59:53;11.82;;;10.63;;
63959;SDS011;50136;51.374;0.096;2022-08-18T13:09:56;13.02;;;8.82;;
63959;SDS011;50136;51.374;0.096;2022-08-18T13:20:00;13.35;;;7.60;;
63959;SDS011;50136;51.374;0.096;2022-08-18T13:30:05;13.02;;;8.32;;
63959;SDS011;50136;51.374;0.096;2022-08-18T13:40:30;9.57;;;8.60;;
63959;SDS011;50136;51.374;0.096;2022-08-18T13:50:35;10.57;;;8.75;;
63959;SDS011;50136;51.374;0.096;2022-08-18T14:00:39;9.30;;;8.02;;
63959;SDS011;50136;51.374;0.096;2022-08-18T14:10:42;8.23;;;7.18;;
63959;SDS011;50136;51.374;0.096;2022-08-18T14:20:45;9.80;;;8.13;;
63959;SDS011;50136;51.374;0.096;2022-08-18T14:30:48;7.63;;;6.80;;
63959;SDS011;50136;51.374;0.096;2022-08-18T14:40:55;11.93;;;8.20;;
63959;SDS011;50136;51.374;0.096;2022-08-18T14:50:58;7.93;;;7.05;;
63959;SDS011;50136;51.374;0.096;2022-08-18T15:01:05;7.63;;;6.93;;
63959;SDS011;50136;51.374;0.096;2022-08-18T15:11:11;11.90;;;7.43;;
63959;SDS011;50136;51.374;0.096;2022-08-18T15:21:16;18.20;;;10.05;;
63959;SDS011;50136;51.374;0.096;2022-08-18T15:31:35;7.03;;;6.32;;
63959;SDS011;50136;51.374;0.096;2022-08-18T15:41:59;9.77;;;6.97;;
63959;SDS011;50136;51.374;0.096;2022-08-18T15:55:36;10.25;;;6.57;;
63959;SDS011;50136;51.374;0.096;2022-08-18T16:05:40;9.18;;;6.55;;
63959;SDS011;50136;51.374;0.096;2022-08-18T16:15:48;12.10;;;7.63;;
63959;SDS011;50136;51.374;0.096;2022-08-18T16:25:50;16.58;;;8.32;;
63959;SDS011;50136;51.374;0.096;2022-08-18T16:35:54;12.80;;;5.75;;
63959;SDS011;50136;51.374;0.096;2022-08-18T16:45:56;6.70;;;5.03;;
63959;SDS011;50136;51.374;0.096;2022-08-18T16:55:59;10.52;;;5.57;;
63959;SDS011;50136;51.374;0.096;2022-08-18T17:06:02;8.82;;;5.03;;
63959;SDS011;50136;51.374;0.096;2022-08-18T17:16:07;7.35;;;4.25;;
63959;SDS011;50136;51.374;0.096;2022-08-18T17:26:11;8.43;;;4.72;;
63959;SDS011;50136;51.374;0.096;2022-08-18T17:36:20;8.98;;;4.35;;
63959;SDS011;50136;51.374;0.096;2022-08-18T17:46:36;5.38;;;4.10;;
63959;SDS011;50136;51.374;0.096;2022-08-18T17:56:44;7.05;;;4.60;;
63959;SDS011;50136;51.374;0.096;2022-08-18T18:06:49;8.05;;;4.47;;
63959;SDS011;50136;51.374;0.096;2022-08-18T18:17:00;9.57;;;5.00;;
63959;SDS011;50136;51.374;0.096;2022-08-18T18:27:50;10.95;;;6.82;;
63959;SDS011;50136;51.374;0.096;2022-08-18T18:37:58;6.00;;;4.25;;
63959;SDS011;50136;51.374;0.096;2022-08-18T18:48:16;10.93;;;4.88;;
63959;SDS011;50136;51.374;0.096;2022-08-18T19:20:52;6.13;;;3.85;;
63959;SDS011;50136;51.374;0.096;2022-08-18T19:53:05;5.88;;;3.90;;
63959;SDS011;50136;51.374;0.096;2022-08-18T20:13:47;3.87;;;3.23;;
63959;SDS011;50136;51.374;0.096;2022-08-18T20:23:59;6.90;;;2.90;;
63959;SDS011;50136;51.374;0.096;2022-08-18T20:34:05;5.88;;;2.65;;
63959;SDS011;50136;51.374;0.096;2022-08-18T20:44:23;9.35;;;3.08;;
63959;SDS011;50136;51.374;0.096;2022-08-18T20:54:41;3.97;;;2.85;;
63959;SDS011;50136;51.374;0.096;2022-08-18T21:04:59;8.07;;;4.60;;
63959;SDS011;50136;51.374;0.096;2022-08-18T21:15:03;5.90;;;3.78;;
63959;SDS011;50136;51.374;0.096;2022-08-18T21:25:10;4.15;;;3.38;;
63959;SDS011;50136;51.374;0.096;2022-08-18T21:35:19;6.35;;;3.67;;
63959;SDS011;50136;51.374;0.096;2022-08-18T21:45:24;8.27;;;3.53;;
63959;SDS011;50136;51.374;0.096;2022-08-18T21:55:27;9.82;;;3.78;;
63959;SDS011;50136;51.374;0.096;2022-08-18T22:05:32;7.63;;;3.10;;
63959;SDS011;50136;51.374;0.096;2022-08-18T22:15:58;8.00;;;3.38;;
63959;SDS011;50136;51.374;0.096;2022-08-18T22:26:27;13.30;;;3.08;;
63959;SDS011;50136;51.374;0.096;2022-08-18T22:36:32;6.35;;;2.92;;
63959;SDS011;50136;51.374;0.096;2022-08-18T22:46:37;5.47;;;2.88;;
63959;SDS011;50136;51.374;0.096;2022-08-18T22:56:40;6.40;;;3.30;;
63959;SDS011;50136;51.374;0.096;2022-08-18T23:06:58;3.67;;;2.45;;
63959;SDS011;50136;51.374;0.096;2022-08-18T23:17:00;3.15;;;2.78;;
63959;SDS011;50136;51.374;0.096;2022-08-18T23:27:06;4.78;;;2.55;;
63959;SDS011;50136;51.374;0.096;2022-08-18T23:37:08;5.93;;;3.15;;
63959;SDS011;50136;51.374;0.096;2022-08-18T23:47:12;4.80;;;2.90;;
63959;SDS011;50136;51.374;0.096;2022-08-18T23:57:14;5.70;;;2.95;;
